Time;durP1;ratioP1;P1;durP2;ratioP2;P2;SDS_P1;SDS_P2;PMS_P1;PMS_P2;Temp;Humidity;BMP_temperature;BMP_pressure;BME280_temperature;BME280_humidity;BME280_pressure;Samples;Min_cycle;Max_cycle;Signal;HPM_P1;HPM_P2
2022/12/27 00:01:16;;;;;;;3.30;0.90;;;27.20;99.90;;;;;;4988551;28;20200;-76
2022/12/27 00:03:47;;;;;;;1.08;0.70;;;27.10;99.90;;;;;;4989850;28;20226;-76
2022/12/27 00:06:20;;;;;;;3.10;0.80;;;27.10;99.90;;;;;;4992584;28;20282;-76
2022/12/27 00:08:54;;;;;;;3.97;1.10;;;27.20;99.90;;;;;;4990163;28;20651;-80
2022/12/27 00:11:26;;;;;;;2.17;0.90;;;27.50;99.90;;;;;;4982827;28;20284;-76
2022/12/27 00:13:57;;;;;;;1.63;0.77;;;27.50;99.90;;;;;;4988939;28;20211;-77
2022/12/27 00:16:28;;;;;;;3.42;1.05;;;27.50;99.90;;;;;;4988630;28;20205;-80
2022/12/27 00:18:58;;;;;;;1.58;0.65;;;27.40;99.90;;;;;;4987566;28;20278;-77
2022/12/27 00:21:29;;;;;;;2.13;0.80;;;27.40;99.90;;;;;;4987414;28;20219;-76
2022/12/27 00:24:03;;;;;;;4.82;0.80;;;27.60;99.90;;;;;;4991160;28;20298;-77
2022/12/27 00:26:36;;;;;;;2.25;0.70;;;27.60;99.90;;;;;;4988676;28;20204;-76
2022/12/27 00:29:07;;;;;;;2.72;0.80;;;27.80;99.90;;;;;;4982132;28;20291;-83
2022/12/27 00:31:38;;;;;;;2.78;0.80;;;28.00;99.90;;;;;;4986849;28;20195;-77
2022/12/27 00:34:09;;;;;;;4.47;0.80;;;27.90;99.90;;;;;;4992316;28;20544;-77
2022/12/27 00:36:40;;;;;;;3.53;0.80;;;27.80;99.90;;;;;;4986517;28;20221;-81
2022/12/27 00:39:13;;;;;;;2.67;0.70;;;27.80;99.90;;;;;;4988789;28;20629;-84
2022/12/27 00:41:44;;;;;;;2.80;0.70;;;27.80;99.90;;;;;;4989582;28;20266;-76
2022/12/27 00:44:15;;;;;;;4.03;0.70;;;27.90;99.90;;;;;;4981092;28;20684;-76
2022/12/27 00:46:46;;;;;;;3.28;0.70;;;28.00;99.90;;;;;;4987035;28;20214;-74
2022/12/27 00:49:17;;;;;;;2.17;0.60;;;27.80;99.90;;;;;;4983122;28;20238;-81
2022/12/27 00:51:47;;;;;;;2.13;0.63;;;27.80;99.90;;;;;;4985972;28;20200;-75
2022/12/27 00:54:21;;;;;;;3.80;0.80;;;27.80;99.90;;;;;;4986410;28;20203;-75
2022/12/27 00:56:52;;;;;;;2.63;0.70;;;27.70;99.90;;;;;;4991163;28;20287;-77
2022/12/27 00:59:27;;;;;;;1.67;0.70;;;27.60;99.90;;;;;;4990967;28;20562;-75
2022/12/27 01:01:58;;;;;;;2.10;0.75;;;27.50;99.90;;;;;;4981294;28;20230;-78
2022/12/27 01:04:29;;;;;;;3.03;0.77;;;27.50;99.90;;;;;;4984879;28;20319;-80
2022/12/27 01:07:00;;;;;;;2.65;0.80;;;27.50;99.90;;;;;;4979195;28;20307;-79
2022/12/27 01:09:32;;;;;;;3.33;0.68;;;27.60;99.90;;;;;;4990153;28;20709;-77
2022/12/27 01:12:03;;;;;;;2.92;0.80;;;27.80;99.90;;;;;;4984757;28;20673;-77
2022/12/27 01:14:34;;;;;;;2.67;0.70;;;27.70;99.90;;;;;;4982792;28;20206;-76
2022/12/27 01:17:05;;;;;;;2.42;0.50;;;27.70;99.90;;;;;;4988241;28;20201;-75
2022/12/27 01:19:38;;;;;;;1.95;0.60;;;28.00;99.90;;;;;;4992786;28;20278;-80
2022/12/27 01:22:09;;;;;;;1.15;0.50;;;28.10;99.90;;;;;;4985599;28;20206;-76
2022/12/27 01:24:42;;;;;;;1.05;0.50;;;28.00;99.90;;;;;;4984767;28;20215;-79
2022/12/27 01:27:12;;;;;;;2.85;0.60;;;28.00;99.90;;;;;;4986336;28;20283;-78
2022/12/27 01:29:43;;;;;;;1.55;0.40;;;28.20;99.90;;;;;;4985248;28;20670;-81
2022/12/27 01:32:14;;;;;;;1.77;0.70;;;28.10;99.90;;;;;;4984736;28;20330;-76
2022/12/27 01:34:45;;;;;;;1.63;0.80;;;28.00;99.90;;;;;;4984366;28;20662;-82
2022/12/27 01:37:15;;;;;;;1.95;0.60;;;28.20;99.90;;;;;;4986055;28;20201;-75
2022/12/27 01:39:48;;;;;;;2.85;0.60;;;28.30;99.90;;;;;;4988394;28;20282;-80
2022/12/27 01:45:17;;;;;;;1.48;0.70;;;28.40;99.90;;;;;;4991194;28;20246;-78
2022/12/27 01:47:56;;;;;;;3.70;0.60;;;28.20;99.90;;;;;;4983710;28;20338;-75
2022/12/27 01:50:33;;;;;;;1.70;0.68;;;28.00;99.90;;;;;;4983021;28;20207;-77
2022/12/27 01:53:10;;;;;;;2.58;0.57;;;28.10;99.90;;;;;;4988122;28;20676;-85
2022/12/27 01:55:47;;;;;;;2.00;0.60;;;28.20;99.90;;;;;;4988994;28;20290;-81
2022/12/27 01:58:23;;;;;;;1.95;0.60;;;28.20;99.90;;;;;;4987112;28;20199;-76
2022/12/27 02:00:54;;;;;;;2.95;0.60;;;28.30;99.90;;;;;;4983781;28;20696;-80
2022/12/27 02:03:29;;;;;;;3.60;0.77;;;28.30;99.90;;;;;;4981654;28;20564;-84
2022/12/27 02:06:02;;;;;;;1.40;0.60;;;28.60;99.90;;;;;;4984099;28;20226;-79
2022/12/27 02:08:44;;;;;;;2.45;0.50;;;28.20;99.90;;;;;;4979708;28;20311;-82
2022/12/27 02:11:17;;;;;;;2.35;0.80;;;28.00;99.90;;;;;;4991670;28;20209;-83
2022/12/27 02:13:49;;;;;;;3.67;0.60;;;28.30;99.90;;;;;;4989747;28;20606;-80
2022/12/27 02:16:21;;;;;;;1.98;0.60;;;28.30;99.90;;;;;;4989531;28;20476;-79
2022/12/27 02:18:52;;;;;;;1.42;0.70;;;28.50;99.90;;;;;;4992095;28;20232;-80
2022/12/27 02:21:46;;;;;;;2.25;1.50;;;28.20;99.90;;;;;;4991669;28;20200;-80
2022/12/27 02:24:58;;;;;;;2.25;0.70;;;28.30;99.90;;;;;;4991832;28;20204;-77
2022/12/27 02:27:50;;;;;;;3.28;0.70;;;28.20;99.90;;;;;;4993102;28;20203;-80
2022/12/27 02:30:23;;;;;;;2.63;0.60;;;28.60;99.90;;;;;;4986983;28;20275;-82
2022/12/27 02:32:59;;;;;;;3.20;0.60;;;28.40;99.90;;;;;;4989133;28;20210;-79
2022/12/27 02:35:35;;;;;;;3.47;0.80;;;28.40;99.90;;;;;;4994067;28;20205;-79
2022/12/27 02:38:09;;;;;;;1.42;0.70;;;28.50;99.90;;;;;;4991031;28;20286;-85
2022/12/27 02:55:27;;;;;;;1.48;0.50;;;28.80;99.90;;;;;;4986203;28;20239;-78
2022/12/27 02:58:14;;;;;;;1.52;0.60;;;28.90;99.90;;;;;;4987625;28;20195;-88
2022/12/27 03:03:53;;;;;;;2.40;0.70;;;28.90;99.90;;;;;;4972512;28;20338;-81
2022/12/27 03:06:45;;;;;;;2.75;0.65;;;29.00;99.90;;;;;;4987291;28;20269;-87
2022/12/27 03:15:56;;;;;;;1.85;0.65;;;28.70;99.90;;;;;;4995897;28;20223;-84
2022/12/27 03:18:57;;;;;;;0.85;0.50;;;28.60;99.90;;;;;;4988303;28;20651;-86
2022/12/27 03:27:16;;;;;;;1.77;0.77;;;28.40;99.90;;;;;;4991033;28;20579;-80
2022/12/27 03:35:36;;;;;;;3.40;0.68;;;28.10;99.90;;;;;;4989677;28;20199;-90
2022/12/27 03:38:08;;;;;;;2.10;0.50;;;28.10;99.90;;;;;;4993366;28;20714;-84
2022/12/27 03:43:38;;;;;;;1.52;0.50;;;28.20;99.90;;;;;;4976709;28;20199;-86
2022/12/27 03:46:37;;;;;;;2.03;0.50;;;28.00;99.90;;;;;;4988300;28;20228;-83
2022/12/27 03:49:16;;;;;;;1.55;0.50;;;28.10;99.90;;;;;;4975307;28;20576;-78
2022/12/27 03:51:53;;;;;;;2.15;0.40;;;28.00;99.90;;;;;;4973450;28;20196;-81
2022/12/27 03:54:28;;;;;;;1.13;0.60;;;28.10;99.90;;;;;;4961977;28;20243;-83
2022/12/27 03:57:01;;;;;;;2.13;0.50;;;28.00;99.90;;;;;;4982157;28;20231;-83
2022/12/27 03:59:32;;;;;;;3.17;0.70;;;27.90;99.90;;;;;;4975542;28;20314;-85
2022/12/27 04:02:03;;;;;;;2.58;0.60;;;27.80;99.90;;;;;;4981796;28;20314;-81
2022/12/27 04:04:34;;;;;;;1.38;0.50;;;27.80;99.90;;;;;;4975815;28;20203;-81
2022/12/27 04:07:13;;;;;;;0.82;0.40;;;27.90;99.90;;;;;;4972205;28;20287;-83
2022/12/27 04:34:45;;;;;;;0.90;0.50;;;27.70;99.90;;;;;;4970125;28;20284;-80
2022/12/27 04:37:17;;;;;;;1.20;0.60;;;27.80;99.90;;;;;;4965558;28;20208;-81
2022/12/27 04:56:41;;;;;;;3.20;0.60;;;27.80;99.90;;;;;;4966923;28;20198;-83
2022/12/27 05:02:04;;;;;;;1.35;0.60;;;27.90;99.90;;;;;;4976915;28;20207;-81
2022/12/27 05:04:38;;;;;;;2.42;0.80;;;27.60;99.90;;;;;;4969888;28;20289;-88
2022/12/27 05:15:37;;;;;;;1.10;0.63;;;27.70;99.90;;;;;;4972374;28;20200;-85
2022/12/27 05:18:08;;;;;;;1.77;0.80;;;27.60;99.90;;;;;;4971282;28;20199;-79
2022/12/27 05:20:39;;;;;;;2.75;0.63;;;27.60;99.90;;;;;;4965964;28;20205;-81
2022/12/27 05:26:01;;;;;;;0.75;0.63;;;27.40;99.90;;;;;;4957473;28;20311;-84
2022/12/27 05:28:33;;;;;;;2.28;0.70;;;27.20;99.90;;;;;;4976567;28;20192;-83
2022/12/27 05:31:04;;;;;;;1.52;0.70;;;27.10;99.90;;;;;;4971024;28;20203;-82
2022/12/27 05:33:35;;;;;;;1.65;0.52;;;27.00;99.90;;;;;;4970769;28;20300;-83
2022/12/27 05:36:06;;;;;;;2.35;0.68;;;26.90;99.90;;;;;;4967304;28;20204;-81
2022/12/27 05:38:37;;;;;;;2.40;0.70;;;26.70;99.90;;;;;;4972037;28;20447;-84
2022/12/27 05:41:08;;;;;;;1.48;0.60;;;26.50;99.90;;;;;;4968206;28;20626;-85
2022/12/27 05:43:41;;;;;;;1.80;0.50;;;26.60;99.90;;;;;;4972307;28;20266;-80
2022/12/27 05:46:14;;;;;;;4.93;0.68;;;26.40;99.90;;;;;;4974195;28;20301;-86
2022/12/27 05:48:45;;;;;;;1.65;0.70;;;26.30;99.90;;;;;;4982464;28;20228;-82
2022/12/27 05:51:19;;;;;;;1.75;0.60;;;26.40;99.90;;;;;;4989978;28;20286;-83
2022/12/27 05:53:50;;;;;;;1.45;0.70;;;26.40;99.90;;;;;;4984653;28;20286;-83
2022/12/27 05:56:23;;;;;;;1.17;0.68;;;26.20;99.90;;;;;;4988226;28;20243;-79
2022/12/27 05:58:57;;;;;;;2.03;0.77;;;26.10;99.90;;;;;;4986239;28;20287;-80
2022/12/27 06:01:28;;;;;;;1.33;0.57;;;26.00;99.90;;;;;;4989174;28;20294;-79
2022/12/27 06:03:59;;;;;;;2.75;0.73;;;25.90;99.90;;;;;;4986544;28;20192;-80
2022/12/27 06:06:30;;;;;;;2.00;0.70;;;25.80;99.90;;;;;;4986055;28;20224;-81
2022/12/27 06:09:01;;;;;;;2.75;0.60;;;25.80;99.90;;;;;;4994192;28;20201;-81
2022/12/27 06:11:31;;;;;;;2.20;0.60;;;25.90;99.90;;;;;;4993540;28;20195;-82
2022/12/27 06:14:04;;;;;;;1.90;0.60;;;25.90;99.90;;;;;;4993658;28;20198;-86
2022/12/27 06:16:35;;;;;;;1.15;0.70;;;25.90;99.90;;;;;;4993655;28;20278;-82
2022/12/27 06:19:06;;;;;;;2.53;0.80;;;26.00;99.90;;;;;;4993744;28;20198;-83
2022/12/27 06:21:36;;;;;;;1.33;0.68;;;26.00;99.90;;;;;;4993544;28;20711;-85
2022/12/27 06:24:08;;;;;;;1.23;0.75;;;26.10;99.90;;;;;;4990827;28;20203;-83
2022/12/27 06:26:38;;;;;;;2.63;0.63;;;26.00;99.90;;;;;;4993279;28;20314;-83
2022/12/27 06:29:14;;;;;;;1.70;0.70;;;25.90;99.90;;;;;;4993690;28;20282;-83
2022/12/27 06:31:45;;;;;;;3.35;0.70;;;25.80;99.90;;;;;;4993653;28;20192;-80
2022/12/27 06:34:15;;;;;;;1.15;0.70;;;25.60;99.90;;;;;;4993903;28;20250;-80
2022/12/27 06:36:49;;;;;;;2.08;0.70;;;25.50;99.90;;;;;;4993593;28;20195;-79
2022/12/27 06:39:20;;;;;;;3.10;0.57;;;25.40;99.90;;;;;;4993531;28;20714;-83
2022/12/27 06:41:54;;;;;;;3.28;0.82;;;25.30;99.90;;;;;;4993266;28;20656;-79
2022/12/27 06:44:27;;;;;;;0.63;0.50;;;25.40;99.90;;;;;;4993745;28;20282;-81
2022/12/27 06:46:58;;;;;;;2.67;0.70;;;25.20;99.90;;;;;;4993378;28;20644;-83
2022/12/27 06:49:28;;;;;;;2.35;0.80;;;25.10;99.90;;;;;;4993365;28;20231;-80
2022/12/27 06:51:59;;;;;;;1.40;0.60;;;25.00;99.90;;;;;;4993535;28;20194;-82
2022/12/27 06:54:30;;;;;;;1.85;0.70;;;25.00;99.90;;;;;;4993250;28;20202;-83
2022/12/27 06:57:01;;;;;;;2.22;0.80;;;25.20;99.90;;;;;;4994889;28;20278;-83
2022/12/27 06:59:34;;;;;;;1.67;0.60;;;25.20;99.90;;;;;;4997054;28;20221;-79
2022/12/27 07:02:04;;;;;;;1.50;0.60;;;25.30;99.90;;;;;;4996755;28;20627;-83
2022/12/27 07:04:35;;;;;;;0.98;0.60;;;25.20;99.90;;;;;;4996882;28;20195;-82
2022/12/27 07:07:06;;;;;;;1.63;0.70;;;25.10;99.90;;;;;;4996414;28;20227;-84
2022/12/27 07:09:37;;;;;;;1.65;0.80;;;25.10;99.90;;;;;;4996343;28;20820;-82
2022/12/27 07:12:08;;;;;;;0.90;0.63;;;25.20;99.90;;;;;;4996677;28;20278;-81
2022/12/27 07:14:41;;;;;;;1.63;0.68;;;25.10;99.90;;;;;;4997171;28;20198;-83
2022/12/27 07:17:12;;;;;;;2.47;0.75;;;25.00;99.90;;;;;;4995672;28;20287;-82
2022/12/27 07:19:47;;;;;;;2.15;0.90;;;24.90;99.90;;;;;;4996424;28;20199;-87
2022/12/27 07:22:17;;;;;;;3.15;0.85;;;24.90;99.90;;;;;;4996728;28;20282;-82
2022/12/27 07:24:48;;;;;;;1.55;0.70;;;24.80;99.90;;;;;;4996111;28;20198;-80
2022/12/27 07:27:19;;;;;;;1.42;0.70;;;24.80;99.90;;;;;;4996493;28;20769;-81
2022/12/27 07:29:51;;;;;;;2.67;0.80;;;24.70;99.90;;;;;;4996358;28;20197;-82
2022/12/27 07:32:22;;;;;;;2.33;0.80;;;24.70;99.90;;;;;;4996371;28;20677;-84
2022/12/27 07:34:53;;;;;;;2.10;0.77;;;24.60;99.90;;;;;;4996181;28;20560;-80
2022/12/27 07:37:24;;;;;;;1.45;0.60;;;24.60;99.90;;;;;;4996590;28;20283;-84
2022/12/27 07:39:55;;;;;;;1.40;0.77;;;24.60;99.90;;;;;;4996024;28;20298;-86
2022/12/27 07:42:25;;;;;;;2.05;0.77;;;24.60;99.90;;;;;;4993056;28;20192;-84
2022/12/27 07:44:58;;;;;;;3.35;0.90;;;24.50;99.90;;;;;;4996075;28;20195;-82
2022/12/27 07:47:29;;;;;;;2.88;0.77;;;24.60;99.90;;;;;;4992625;28;20629;-81
2022/12/27 07:50:00;;;;;;;1.73;0.85;;;24.50;99.90;;;;;;4991867;28;20278;-84
2022/12/27 07:52:30;;;;;;;2.40;1.00;;;24.40;99.90;;;;;;4990045;28;20279;-87
2022/12/27 07:55:03;;;;;;;1.95;0.80;;;24.40;99.90;;;;;;4993858;28;20693;-84
2022/12/27 07:57:33;;;;;;;0.77;0.70;;;24.40;99.90;;;;;;4993698;28;20200;-80
2022/12/27 08:00:08;;;;;;;3.05;0.90;;;24.40;99.90;;;;;;4993523;28;20554;-83
2022/12/27 08:02:38;;;;;;;1.33;0.70;;;24.40;99.90;;;;;;4993223;28;20714;-83
2022/12/27 08:05:10;;;;;;;0.77;0.70;;;24.40;99.90;;;;;;4992105;28;20222;-85
2022/12/27 08:07:42;;;;;;;1.10;0.70;;;24.40;99.90;;;;;;4988343;28;20336;-83
2022/12/27 08:10:13;;;;;;;2.97;0.75;;;24.30;99.90;;;;;;4985081;28;20227;-82
2022/12/27 08:12:44;;;;;;;2.72;0.80;;;24.30;99.90;;;;;;4990942;28;20231;-82
2022/12/27 08:15:17;;;;;;;1.95;0.70;;;24.30;99.90;;;;;;4985610;28;20660;-86
2022/12/27 08:17:47;;;;;;;3.85;0.80;;;24.30;99.90;;;;;;4994481;28;20466;-83
2022/12/27 08:20:18;;;;;;;3.65;1.00;;;24.30;99.90;;;;;;4994063;28;20209;-86
2022/12/27 08:22:49;;;;;;;3.13;1.42;;;24.30;99.90;;;;;;4988615;28;20330;-84
2022/12/27 08:25:21;;;;;;;2.70;1.00;;;24.30;99.90;;;;;;4993018;28;20200;-82
2022/12/27 08:27:52;;;;;;;1.80;0.80;;;24.10;99.90;;;;;;4994146;28;20310;-84
2022/12/27 08:30:25;;;;;;;1.70;0.75;;;24.00;99.90;;;;;;4990671;28;20282;-81
2022/12/27 08:32:56;;;;;;;1.55;0.70;;;24.00;99.90;;;;;;4993003;28;20203;-80
2022/12/27 08:35:27;;;;;;;2.95;0.98;;;24.00;99.90;;;;;;4988972;28;20278;-85
2022/12/27 08:37:57;;;;;;;3.83;1.00;;;24.00;99.90;;;;;;4992698;28;20282;-83
2022/12/27 08:40:28;;;;;;;1.55;0.75;;;24.00;99.90;;;;;;4991820;28;20208;-81
2022/12/27 08:43:08;;;;;;;5.00;1.08;;;24.00;99.90;;;;;;4990404;28;20210;-83
2022/12/27 08:45:42;;;;;;;3.97;0.90;;;23.80;99.90;;;;;;4992899;28;20546;-84
2022/12/27 08:48:12;;;;;;;3.90;0.95;;;23.80;99.90;;;;;;4989762;28;20237;-89
2022/12/27 08:50:43;;;;;;;2.60;0.98;;;23.70;99.90;;;;;;4990134;28;20557;-86
2022/12/27 08:53:14;;;;;;;4.40;1.15;;;23.60;99.90;;;;;;4992044;28;20233;-87
2022/12/27 08:55:45;;;;;;;3.63;0.80;;;23.60;99.90;;;;;;4993762;28;20560;-85
2022/12/27 08:58:16;;;;;;;1.70;0.77;;;23.50;99.90;;;;;;4994402;28;20627;-87
2022/12/27 09:00:49;;;;;;;3.15;0.80;;;23.40;99.90;;;;;;4990094;28;20278;-83
2022/12/27 09:03:22;;;;;;;2.33;0.88;;;23.30;99.90;;;;;;4991461;28;20538;-83
2022/12/27 09:05:53;;;;;;;1.95;0.88;;;23.20;99.90;;;;;;4991555;28;20214;-89
2022/12/27 09:08:23;;;;;;;2.70;0.90;;;23.20;99.90;;;;;;4992071;28;20207;-83
2022/12/27 09:10:54;;;;;;;3.70;0.90;;;23.10;99.90;;;;;;4993278;28;20738;-81
2022/12/27 09:13:25;;;;;;;2.63;0.90;;;23.10;99.90;;;;;;4990135;28;20291;-86
2022/12/27 09:15:58;;;;;;;2.13;0.80;;;22.90;99.90;;;;;;4990197;28;20629;-88
2022/12/27 09:18:28;;;;;;;3.50;1.00;;;22.90;99.90;;;;;;4990912;28;20667;-80
2022/12/27 09:21:04;;;;;;;2.00;1.00;;;22.90;99.90;;;;;;4992111;28;20689;-82
2022/12/27 09:23:35;;;;;;;3.90;1.10;;;22.90;99.90;;;;;;4986060;28;20215;-83
2022/12/27 09:26:10;;;;;;;4.25;1.00;;;22.80;99.90;;;;;;4983420;28;20191;-83
2022/12/27 09:28:41;;;;;;;6.57;1.50;;;22.80;99.90;;;;;;4982823;28;20278;-84
2022/12/27 09:31:15;;;;;;;3.42;0.90;;;22.70;99.90;;;;;;4992710;28;20199;-84
2022/12/27 09:33:46;;;;;;;3.78;1.00;;;22.70;99.90;;;;;;4993895;28;20273;-83
2022/12/27 09:36:19;;;;;;;2.63;0.90;;;22.70;99.90;;;;;;4992720;28;20282;-81
2022/12/27 09:38:51;;;;;;;2.03;1.10;;;22.60;99.90;;;;;;4992758;28;20573;-76
2022/12/27 09:41:37;;;;;;;3.22;0.93;;;22.60;99.90;;;;;;4981818;28;20196;-82
2022/12/27 09:44:13;;;;;;;3.45;0.90;;;22.60;99.90;;;;;;4991458;28;20707;-86
2022/12/27 09:46:51;;;;;;;2.08;0.90;;;22.60;99.90;;;;;;4991119;28;20251;-83
2022/12/27 09:49:27;;;;;;;2.03;1.00;;;22.50;99.90;;;;;;4991881;28;20281;-83
2022/12/27 09:52:03;;;;;;;1.60;0.80;;;22.50;99.90;;;;;;4993101;28;20195;-84
2022/12/27 09:54:38;;;;;;;3.08;0.98;;;22.50;99.90;;;;;;4992778;28;20205;-83
2022/12/27 09:57:17;;;;;;;3.50;0.95;;;22.50;99.90;;;;;;4992116;28;20203;-81
2022/12/27 09:59:51;;;;;;;1.75;1.00;;;22.50;99.90;;;;;;4992517;28;20234;-85
2022/12/27 10:02:25;;;;;;;5.13;1.05;;;22.50;99.90;;;;;;4990085;28;20283;-82
2022/12/27 10:04:57;;;;;;;4.93;1.35;;;22.40;99.90;;;;;;4992101;28;20199;-85
2022/12/27 10:07:34;;;;;;;2.15;0.90;;;22.40;99.90;;;;;;4988138;28;20321;-79
2022/12/27 10:10:15;;;;;;;2.70;1.10;;;22.40;99.90;;;;;;4987563;28;20230;-80
2022/12/27 10:13:07;;;;;;;2.25;0.80;;;22.40;99.90;;;;;;4987580;28;20664;-84
2022/12/27 10:15:47;;;;;;;2.47;0.90;;;22.40;99.90;;;;;;4992072;28;20629;-87
2022/12/27 10:18:30;;;;;;;1.30;0.90;;;22.40;99.90;;;;;;4993691;28;20558;-82
2022/12/27 10:21:13;;;;;;;3.03;1.00;;;22.40;99.90;;;;;;4993656;28;20555;-84
2022/12/27 10:23:48;;;;;;;4.90;0.90;;;22.40;99.90;;;;;;4993789;28;20188;-78
2022/12/27 10:26:20;;;;;;;4.18;0.98;;;22.30;99.90;;;;;;4991548;28;20621;-85
2022/12/27 10:28:56;;;;;;;2.33;0.90;;;22.30;99.90;;;;;;4979846;28;20197;-79
2022/12/27 10:31:28;;;;;;;1.33;0.77;;;22.30;99.90;;;;;;4976984;28;20258;-76
2022/12/27 10:34:01;;;;;;;4.25;1.13;;;22.30;99.90;;;;;;4996903;28;20235;-80
2022/12/27 10:36:34;;;;;;;2.80;0.80;;;22.30;99.90;;;;;;4991605;28;20283;-76
2022/12/27 10:39:08;;;;;;;1.25;0.90;;;22.30;99.90;;;;;;4997674;28;20283;-84
2022/12/27 10:41:49;;;;;;;2.53;1.02;;;22.30;99.90;;;;;;4995125;28;20204;-83
2022/12/27 10:44:19;;;;;;;2.22;0.93;;;22.30;99.90;;;;;;4995933;28;20254;-78
2022/12/27 10:46:54;;;;;;;2.15;0.82;;;22.30;99.90;;;;;;4996742;28;20762;-79
2022/12/27 10:49:29;;;;;;;4.13;1.10;;;22.30;99.90;;;;;;4987412;28;20250;-75
2022/12/27 10:52:08;;;;;;;2.67;0.90;;;22.30;99.90;;;;;;4996938;28;20605;-74
2022/12/27 10:54:53;;;;;;;2.97;0.88;;;22.20;99.90;;;;;;4997024;28;20199;-85
2022/12/27 10:57:29;;;;;;;2.55;1.00;;;22.20;99.90;;;;;;4994606;28;20195;-81
2022/12/27 11:00:18;;;;;;;4.10;0.90;;;22.20;99.90;;;;;;4991482;28;20226;-80
2022/12/27 11:02:54;;;;;;;3.88;1.13;;;22.20;99.90;;;;;;4993216;28;20192;-73
2022/12/27 11:05:28;;;;;;;4.10;1.00;;;22.20;99.90;;;;;;4995865;28;20574;-81
2022/12/27 11:08:00;;;;;;;2.70;1.00;;;22.20;99.90;;;;;;4992706;28;20253;-82
2022/12/27 11:10:32;;;;;;;4.20;1.08;;;22.10;99.90;;;;;;4995068;28;20210;-77
2022/12/27 11:13:04;;;;;;;2.38;1.20;;;22.20;99.90;;;;;;4991314;28;20552;-82
2022/12/27 11:15:36;;;;;;;3.85;1.00;;;22.20;99.90;;;;;;4995714;28;20286;-82
2022/12/27 11:18:13;;;;;;;2.42;0.82;;;22.10;99.90;;;;;;4995383;28;20665;-82
2022/12/27 11:20:49;;;;;;;3.65;1.13;;;22.10;99.90;;;;;;4995531;28;20199;-83
2022/12/27 11:23:22;;;;;;;1.45;1.08;;;22.20;99.90;;;;;;4993456;28;20219;-81
2022/12/27 11:25:55;;;;;;;2.85;0.85;;;22.20;99.90;;;;;;4984837;28;20655;-85
2022/12/27 11:28:36;;;;;;;2.65;0.80;;;22.20;99.90;;;;;;4993702;28;20216;-83
2022/12/27 11:31:09;;;;;;;4.50;1.30;;;22.20;99.90;;;;;;4982853;28;20203;-83
2022/12/27 11:33:42;;;;;;;2.35;0.95;;;22.20;99.90;;;;;;4994977;28;20235;-83
2022/12/27 11:36:16;;;;;;;2.83;1.00;;;22.20;99.90;;;;;;4994380;28;20656;-83
2022/12/27 11:38:51;;;;;;;2.38;0.95;;;22.20;99.90;;;;;;4993286;28;20205;-85
2022/12/27 11:41:31;;;;;;;3.40;1.00;;;22.20;99.90;;;;;;4993156;28;20230;-82
2022/12/27 11:44:05;;;;;;;4.10;1.15;;;22.20;99.90;;;;;;4992815;28;20218;-83
2022/12/27 11:46:42;;;;;;;3.55;0.93;;;22.30;99.90;;;;;;4995807;28;20270;-85
2022/12/27 11:49:21;;;;;;;3.22;0.98;;;22.30;99.90;;;;;;4992834;28;20241;-85
2022/12/27 11:52:28;;;;;;;2.90;0.90;;;22.30;99.90;;;;;;4992296;28;20230;-87
2022/12/27 11:55:29;;;;;;;4.30;1.13;;;22.30;99.90;;;;;;4994267;28;20690;-77
2022/12/27 11:58:26;;;;;;;1.85;1.05;;;22.30;99.90;;;;;;4991397;28;20196;-78
2022/12/27 12:01:04;;;;;;;4.55;1.15;;;22.30;99.90;;;;;;4990339;28;20282;-86
2022/12/27 12:04:05;;;;;;;1.40;0.90;;;22.30;99.90;;;;;;4988820;28;20199;-80
2022/12/27 12:06:48;;;;;;;4.65;1.08;;;22.30;99.90;;;;;;4984593;28;20247;-78
2022/12/27 12:09:43;;;;;;;1.75;0.95;;;22.30;99.90;;;;;;4993426;28;20727;-84
2022/12/27 12:12:40;;;;;;;4.03;0.98;;;22.30;99.90;;;;;;4987955;28;20713;-85
2022/12/27 12:15:36;;;;;;;4.68;1.23;;;22.30;99.90;;;;;;4993921;28;20206;-84
2022/12/27 12:18:18;;;;;;;2.10;0.80;;;22.40;99.90;;;;;;4964904;28;20298;-86
2022/12/27 12:21:34;;;;;;;2.95;0.93;;;22.40;99.90;;;;;;4992690;28;20199;-82
2022/12/27 12:24:35;;;;;;;1.98;1.10;;;22.40;99.90;;;;;;4978359;28;20208;-83
2022/12/27 12:27:29;;;;;;;2.08;1.10;;;22.40;99.90;;;;;;4975513;28;20228;-81
2022/12/27 12:30:33;;;;;;;4.30;1.00;;;22.40;99.90;;;;;;4975461;28;20193;-85
2022/12/27 12:33:24;;;;;;;2.35;1.00;;;22.40;99.90;;;;;;4969835;28;20217;-79
2022/12/27 12:36:13;;;;;;;3.20;1.13;;;22.30;99.90;;;;;;4988516;28;20198;-84
2022/12/27 12:38:52;;;;;;;1.50;0.98;;;22.40;99.90;;;;;;4982611;28;20335;-80
2022/12/27 12:41:50;;;;;;;1.98;0.98;;;22.40;99.90;;;;;;4993758;28;20227;-84
2022/12/27 12:44:42;;;;;;;2.05;1.30;;;22.30;99.90;;;;;;4994199;28;20236;-82
2022/12/27 12:47:29;;;;;;;1.30;1.20;;;22.30;99.90;;;;;;4988751;28;20250;-84
2022/12/27 12:50:17;;;;;;;4.05;1.40;;;22.30;99.90;;;;;;4992252;28;20282;-85
2022/12/27 12:53:02;;;;;;;3.25;1.30;;;22.40;99.90;;;;;;4994897;28;20223;-86
2022/12/27 12:55:46;;;;;;;4.45;1.60;;;22.40;99.90;;;;;;4979148;28;20196;-86
2022/12/27 12:58:38;;;;;;;3.97;1.38;;;22.30;99.90;;;;;;4976092;28;20276;-88
2022/12/27 13:01:31;;;;;;;3.65;1.50;;;22.30;99.90;;;;;;4992176;28;20223;-84
2022/12/27 13:04:34;;;;;;;4.30;1.65;;;22.30;99.90;;;;;;4989938;28;20268;-86
2022/12/27 13:07:25;;;;;;;4.38;1.83;;;22.30;99.90;;;;;;4974293;28;20235;-76
2022/12/27 13:10:28;;;;;;;4.13;1.58;;;22.30;99.90;;;;;;4990993;28;20278;-87
2022/12/27 13:13:05;;;;;;;4.43;1.73;;;22.20;99.90;;;;;;4983769;28;20199;-87
2022/12/27 13:15:47;;;;;;;5.78;1.75;;;22.20;99.90;;;;;;4994839;28;20250;-88
2022/12/27 13:18:27;;;;;;;4.05;1.75;;;22.20;99.90;;;;;;4983948;28;20227;-76
2022/12/27 13:21:05;;;;;;;6.78;1.75;;;22.20;99.90;;;;;;4994307;28;20227;-81
2022/12/27 13:23:44;;;;;;;4.53;1.80;;;22.20;99.90;;;;;;4993767;28;20690;-80
2022/12/27 13:26:23;;;;;;;6.05;1.75;;;22.20;99.90;;;;;;4994434;28;20278;-83
2022/12/27 13:29:08;;;;;;;4.97;1.60;;;22.20;99.90;;;;;;4994088;28;20215;-85
2022/12/27 13:31:48;;;;;;;6.03;1.80;;;22.20;99.90;;;;;;4994363;28;20187;-78
2022/12/27 13:34:41;;;;;;;6.55;1.77;;;22.10;99.90;;;;;;4993524;28;20242;-85
2022/12/27 13:37:26;;;;;;;4.68;1.70;;;22.10;99.90;;;;;;4993845;28;20195;-81
2022/12/27 13:40:15;;;;;;;4.13;2.00;;;22.10;99.90;;;;;;4993504;28;20199;-83
2022/12/27 13:43:24;;;;;;;6.32;1.88;;;22.10;99.90;;;;;;4974480;28;20271;-84
2022/12/27 13:46:13;;;;;;;3.20;1.52;;;22.10;99.90;;;;;;4987964;28;20192;-85
2022/12/27 13:49:01;;;;;;;5.53;2.00;;;22.10;99.90;;;;;;4993696;28;20243;-86
2022/12/27 13:51:47;;;;;;;3.92;1.70;;;22.10;99.90;;;;;;4966705;28;20236;-83
2022/12/27 13:54:53;;;;;;;6.47;2.00;;;22.10;99.90;;;;;;4973385;28;20228;-85
2022/12/27 13:58:06;;;;;;;3.45;1.80;;;22.00;99.90;;;;;;4981471;28;20306;-84
2022/12/27 14:00:43;;;;;;;5.07;1.70;;;22.00;99.90;;;;;;4915502;28;20563;-89
2022/12/27 14:03:45;;;;;;;5.30;1.70;;;22.00;99.90;;;;;;4984821;28;20706;-79
2022/12/27 14:06:32;;;;;;;3.10;1.60;;;22.00;99.90;;;;;;4972095;28;20294;-84
2022/12/27 14:09:39;;;;;;;4.32;1.67;;;22.00;99.90;;;;;;4975905;28;20222;-88
2022/12/27 14:12:48;;;;;;;5.07;1.80;;;22.00;99.90;;;;;;4967143;28;20635;-83
2022/12/27 14:15:22;;;;;;;5.97;1.70;;;22.00;99.90;;;;;;4949234;28;20212;-80
2022/12/27 14:18:07;;;;;;;5.03;1.98;;;22.00;99.90;;;;;;4964696;28;20199;-84
2022/12/27 14:20:59;;;;;;;4.57;1.60;;;22.00;99.90;;;;;;4958778;29;20240;-84
2022/12/27 14:23:51;;;;;;;3.22;1.60;;;22.00;99.90;;;;;;4975522;28;20196;-85
2022/12/27 14:26:48;;;;;;;5.72;1.60;;;22.00;99.90;;;;;;4964239;28;20243;-74
2022/12/27 14:30:03;;;;;;;3.53;1.88;;;22.00;99.90;;;;;;4975265;28;20262;-81
2022/12/27 14:33:16;;;;;;;4.25;1.52;;;22.00;99.90;;;;;;4976986;28;20233;-83
2022/12/27 14:36:15;;;;;;;3.95;1.58;;;22.00;99.90;;;;;;4970373;28;20222;-80
2022/12/27 14:39:26;;;;;;;5.07;2.00;;;22.10;99.90;;;;;;4973665;28;20279;-84
2022/12/27 14:42:37;;;;;;;3.25;1.65;;;22.10;99.90;;;;;;4976666;28;20287;-81
2022/12/27 14:45:43;;;;;;;2.92;1.60;;;22.00;99.90;;;;;;4979711;28;20239;-81
2022/12/27 14:48:48;;;;;;;3.25;1.45;;;22.00;99.90;;;;;;4977733;28;20285;-83
2022/12/27 14:51:50;;;;;;;4.05;1.60;;;22.10;99.90;;;;;;4992914;28;20226;-79
2022/12/27 14:54:57;;;;;;;4.07;1.70;;;22.10;99.90;;;;;;4984819;28;20282;-84
2022/12/27 14:57:36;;;;;;;3.97;1.38;;;22.10;99.90;;;;;;4995824;28;20290;-83
2022/12/27 15:00:16;;;;;;;4.68;1.45;;;22.10;99.90;;;;;;4992171;28;20674;-78
2022/12/27 15:03:11;;;;;;;4.70;1.60;;;22.10;99.90;;;;;;4987772;28;20192;-81
2022/12/27 15:05:52;;;;;;;5.10;1.52;;;22.00;99.90;;;;;;4995277;28;20223;-79
2022/12/27 15:08:41;;;;;;;2.40;1.50;;;22.00;99.90;;;;;;4996309;28;20695;-81
2022/12/27 15:11:44;;;;;;;4.70;1.73;;;22.00;99.90;;;;;;4996696;28;20200;-85
2022/12/27 15:14:33;;;;;;;4.85;1.80;;;22.00;99.90;;;;;;4975129;28;20694;-78
2022/12/27 15:17:18;;;;;;;1.70;1.60;;;22.00;99.90;;;;;;4996566;28;20665;-81
2022/12/27 15:20:21;;;;;;;3.28;1.60;;;22.00;99.90;;;;;;4996413;28;20274;-77
2022/12/27 15:23:08;;;;;;;6.15;1.80;;;22.00;99.90;;;;;;4988562;28;20203;-80